sensor_id;sensor_type;location;lat;lon;timestamp;pressure;altitude;pressure_sealevel;temperature;humidity
24160;BME280;62385;41.594;23.808;2023-09-12T00:00:06;95655.28;;;13.59;56.99
24160;BME280;62385;41.594;23.808;2023-09-12T00:02:37;95650.88;;;13.51;57.02
24160;BME280;62385;41.594;23.808;2023-09-12T00:05:03;95665.13;;;13.73;56.76
24160;BME280;62385;41.594;23.808;2023-09-12T00:07:30;95648.50;;;13.56;57.10
24160;BME280;62385;41.594;23.808;2023-09-12T00:09:56;95668.44;;;13.60;57.38
24160;BME280;62385;41.594;23.808;2023-09-12T00:12:24;95671.78;;;13.62;57.32
24160;BME280;62385;41.594;23.808;2023-09-12T00:14:53;95645.63;;;13.14;58.34
24160;BME280;62385;41.594;23.808;2023-09-12T00:17:18;95668.91;;;13.49;58.01
24160;BME280;62385;41.594;23.808;2023-09-12T00:19:44;95675.44;;;13.47;58.08
24160;BME280;62385;41.594;23.808;2023-09-12T00:22:10;95671.75;;;13.48;57.92
24160;BME280;62385;41.594;23.808;2023-09-12T00:24:36;95674.88;;;13.36;57.56
24160;BME280;62385;41.594;23.808;2023-09-12T00:27:03;95674.06;;;13.36;58.06
24160;BME280;62385;41.594;23.808;2023-09-12T00:29:30;95651.47;;;12.94;59.02
24160;BME280;62385;41.594;23.808;2023-09-12T00:31:56;95665.69;;;13.24;58.60
24160;BME280;62385;41.594;23.808;2023-09-12T00:34:21;95684.06;;;13.34;58.51
24160;BME280;62385;41.594;23.808;2023-09-12T00:36:47;95671.84;;;13.25;58.30
24160;BME280;62385;41.594;23.808;2023-09-12T00:39:13;95665.41;;;13.19;58.32
24160;BME280;62385;41.594;23.808;2023-09-12T00:41:39;95685.97;;;13.11;59.49
24160;BME280;62385;41.594;23.808;2023-09-12T00:44:06;95677.28;;;13.17;58.74
24160;BME280;62385;41.594;23.808;2023-09-12T00:46:31;95684.22;;;12.80;60.26
24160;BME280;62385;41.594;23.808;2023-09-12T00:48:58;95661.59;;;12.76;60.13
24160;BME280;62385;41.594;23.808;2023-09-12T00:51:25;95664.19;;;12.84;59.98
24160;BME280;62385;41.594;23.808;2023-09-12T00:53:52;95676.19;;;12.66;60.99
24160;BME280;62385;41.594;23.808;2023-09-12T00:56:19;95681.00;;;12.85;59.98
24160;BME280;62385;41.594;23.808;2023-09-12T00:58:45;95685.38;;;13.01;60.17
24160;BME280;62385;41.594;23.808;2023-09-12T01:01:11;95687.78;;;12.73;60.65
24160;BME280;62385;41.594;23.808;2023-09-12T01:03:36;95668.97;;;12.74;60.61
24160;BME280;62385;41.594;23.808;2023-09-12T01:06:02;95688.84;;;12.86;60.29
24160;BME280;62385;41.594;23.808;2023-09-12T01:08:28;95667.00;;;13.06;59.53
24160;BME280;62385;41.594;23.808;2023-09-12T01:10:55;95672.13;;;12.92;59.37
24160;BME280;62385;41.594;23.808;2023-09-12T01:13:40;95690.44;;;12.73;60.44
24160;BME280;62385;41.594;23.808;2023-09-12T01:16:06;95692.34;;;13.02;59.89
24160;BME280;62385;41.594;23.808;2023-09-12T01:18:31;95688.47;;;12.89;59.81
24160;BME280;62385;41.594;23.808;2023-09-12T01:26:22;95676.66;;;12.46;61.01
24160;BME280;62385;41.594;23.808;2023-09-12T01:28:54;95701.00;;;12.66;60.45
24160;BME280;62385;41.594;23.808;2023-09-12T01:31:22;95682.13;;;12.53;60.73
24160;BME280;62385;41.594;23.808;2023-09-12T01:33:49;95691.81;;;12.46;60.90
24160;BME280;62385;41.594;23.808;2023-09-12T01:36:15;95684.91;;;12.37;61.26
24160;BME280;62385;41.594;23.808;2023-09-12T01:38:42;95694.06;;;12.57;61.41
24160;BME280;62385;41.594;23.808;2023-09-12T01:41:07;95680.81;;;12.49;61.24
24160;BME280;62385;41.594;23.808;2023-09-12T01:43:36;95700.59;;;12.55;61.74
24160;BME280;62385;41.594;23.808;2023-09-12T01:46:04;95699.56;;;12.33;62.43
24160;BME280;62385;41.594;23.808;2023-09-12T01:48:33;95703.34;;;12.38;62.10
24160;BME280;62385;41.594;23.808;2023-09-12T01:51:04;95698.97;;;12.45;62.14
24160;BME280;62385;41.594;23.808;2023-09-12T01:53:31;95696.91;;;12.33;62.80
24160;BME280;62385;41.594;23.808;2023-09-12T01:55:58;95700.25;;;12.27;62.63
24160;BME280;62385;41.594;23.808;2023-09-12T01:58:28;95701.41;;;12.32;62.46
24160;BME280;62385;41.594;23.808;2023-09-12T02:00:54;95705.16;;;12.15;62.78
24160;BME280;62385;41.594;23.808;2023-09-12T02:03:21;95691.38;;;12.34;62.01
24160;BME280;62385;41.594;23.808;2023-09-12T02:05:46;95703.28;;;12.24;62.50
24160;BME280;62385;41.594;23.808;2023-09-12T02:08:12;95692.56;;;12.32;62.12
24160;BME280;62385;41.594;23.808;2023-09-12T02:10:38;95690.66;;;12.18;61.65
24160;BME280;62385;41.594;23.808;2023-09-12T02:13:03;95693.56;;;12.31;61.35
24160;BME280;62385;41.594;23.808;2023-09-12T02:15:30;95689.97;;;12.24;61.89
24160;BME280;62385;41.594;23.808;2023-09-12T02:17:56;95713.63;;;12.19;62.01
24160;BME280;62385;41.594;23.808;2023-09-12T02:20:22;95713.72;;;12.33;61.46
24160;BME280;62385;41.594;23.808;2023-09-12T02:22:47;95703.38;;;12.30;61.70
24160;BME280;62385;41.594;23.808;2023-09-12T02:25:13;95709.22;;;12.34;61.43
24160;BME280;62385;41.594;23.808;2023-09-12T02:27:38;95709.28;;;12.18;61.79
24160;BME280;62385;41.594;23.808;2023-09-12T02:30:04;95696.22;;;12.08;62.24
24160;BME280;62385;41.594;23.808;2023-09-12T02:32:30;95694.84;;;11.81;63.04
24160;BME280;62385;41.594;23.808;2023-09-12T02:34:56;95702.63;;;11.91;62.40
24160;BME280;62385;41.594;23.808;2023-09-12T02:37:23;95700.13;;;11.89;62.65
24160;BME280;62385;41.594;23.808;2023-09-12T02:39:49;95719.03;;;12.02;62.80
24160;BME280;62385;41.594;23.808;2023-09-12T02:42:14;95717.41;;;12.24;61.91
24160;BME280;62385;41.594;23.808;2023-09-12T02:44:40;95718.91;;;11.96;63.01
24160;BME280;62385;41.594;23.808;2023-09-12T02:47:06;95714.41;;;11.96;62.47
24160;BME280;62385;41.594;23.808;2023-09-12T02:49:31;95723.34;;;12.03;62.50
24160;BME280;62385;41.594;23.808;2023-09-12T02:51:57;95720.97;;;11.70;63.90
24160;BME280;62385;41.594;23.808;2023-09-12T02:54:22;95723.72;;;12.00;62.83
24160;BME280;62385;41.594;23.808;2023-09-12T02:56:48;95721.09;;;11.92;63.21
24160;BME280;62385;41.594;23.808;2023-09-12T02:59:13;95731.75;;;11.76;63.57
24160;BME280;62385;41.594;23.808;2023-09-12T03:01:39;95733.06;;;11.80;63.33
24160;BME280;62385;41.594;23.808;2023-09-12T03:04:04;95726.91;;;11.88;63.54
24160;BME280;62385;41.594;23.808;2023-09-12T03:06:30;95736.38;;;11.90;63.54
24160;BME280;62385;41.594;23.808;2023-09-12T03:08:56;95725.38;;;11.93;63.24
24160;BME280;62385;41.594;23.808;2023-09-12T03:11:22;95715.97;;;11.83;63.35
24160;BME280;62385;41.594;23.808;2023-09-12T03:13:48;95716.47;;;11.70;63.69
24160;BME280;62385;41.594;23.808;2023-09-12T03:16:14;95730.59;;;11.79;64.45
24160;BME280;62385;41.594;23.808;2023-09-12T03:18:40;95731.72;;;12.23;62.34
24160;BME280;62385;41.594;23.808;2023-09-12T03:21:06;95728.03;;;11.93;63.61
24160;BME280;62385;41.594;23.808;2023-09-12T03:23:32;95729.72;;;11.94;63.74
24160;BME280;62385;41.594;23.808;2023-09-12T03:26:05;95733.78;;;11.74;64.83
24160;BME280;62385;41.594;23.808;2023-09-12T03:28:32;95731.09;;;11.82;63.77
24160;BME280;62385;41.594;23.808;2023-09-12T03:31:07;95740.19;;;11.96;64.01
24160;BME280;62385;41.594;23.808;2023-09-12T03:33:33;95713.38;;;11.58;64.54
24160;BME280;62385;41.594;23.808;2023-09-12T03:35:58;95733.03;;;11.96;63.97
24160;BME280;62385;41.594;23.808;2023-09-12T03:38:24;95740.09;;;11.65;64.50
24160;BME280;62385;41.594;23.808;2023-09-12T03:40:49;95745.69;;;11.86;64.90
24160;BME280;62385;41.594;23.808;2023-09-12T03:43:16;95740.41;;;11.70;65.75
24160;BME280;62385;41.594;23.808;2023-09-12T03:45:42;95741.41;;;11.77;65.82
24160;BME280;62385;41.594;23.808;2023-09-12T03:48:08;95742.19;;;11.94;64.58
24160;BME280;62385;41.594;23.808;2023-09-12T03:50:33;95746.09;;;11.75;65.38
24160;BME280;62385;41.594;23.808;2023-09-12T03:52:59;95751.06;;;11.62;65.58
24160;BME280;62385;41.594;23.808;2023-09-12T03:55:25;95742.13;;;11.39;65.60
24160;BME280;62385;41.594;23.808;2023-09-12T03:57:51;95741.50;;;11.29;65.23
24160;BME280;62385;41.594;23.808;2023-09-12T04:00:16;95728.75;;;11.16;65.63
24160;BME280;62385;41.594;23.808;2023-09-12T04:02:47;95737.19;;;11.20;65.79
24160;BME280;62385;41.594;23.808;2023-09-12T04:05:14;95747.69;;;11.21;66.34
24160;BME280;62385;41.594;23.808;2023-09-12T04:07:39;95759.97;;;11.22;65.96
24160;BME280;62385;41.594;23.808;2023-09-12T04:10:05;95757.97;;;11.24;65.71
24160;BME280;62385;41.594;23.808;2023-09-12T04:12:31;95742.19;;;11.15;65.92
24160;BME280;62385;41.594;23.808;2023-09-12T04:14:57;95751.81;;;11.32;65.78
24160;BME280;62385;41.594;23.808;2023-09-12T04:17:23;95767.06;;;11.46;65.51
24160;BME280;62385;41.594;23.808;2023-09-12T04:19:49;95762.59;;;11.46;65.57
24160;BME280;62385;41.594;23.808;2023-09-12T04:22:14;95756.97;;;11.17;66.07
24160;BME280;62385;41.594;23.808;2023-09-12T04:24:40;95745.16;;;11.28;65.71
24160;BME280;62385;41.594;23.808;2023-09-12T04:27:06;95748.81;;;11.19;65.70
24160;BME280;62385;41.594;23.808;2023-09-12T04:29:35;95748.16;;;11.33;65.53
24160;BME280;62385;41.594;23.808;2023-09-12T04:32:05;95758.63;;;11.34;65.78
24160;BME280;62385;41.594;23.808;2023-09-12T04:34:31;95747.81;;;11.36;65.92
24160;BME280;62385;41.594;23.808;2023-09-12T04:36:57;95758.75;;;11.41;65.82
24160;BME280;62385;41.594;23.808;2023-09-12T04:39:23;95756.56;;;11.52;65.52
24160;BME280;62385;41.594;23.808;2023-09-12T04:41:49;95751.72;;;11.72;64.66
24160;BME280;62385;41.594;23.808;2023-09-12T04:44:14;95758.88;;;11.55;64.96
24160;BME280;62385;41.594;23.808;2023-09-12T04:46:40;95757.72;;;11.74;64.67
24160;BME280;62385;41.594;23.808;2023-09-12T04:49:06;95746.41;;;11.72;64.61
24160;BME280;62385;41.594;23.808;2023-09-12T04:51:31;95759.22;;;11.61;65.36
24160;BME280;62385;41.594;23.808;2023-09-12T04:53:57;95755.00;;;11.90;64.37
24160;BME280;62385;41.594;23.808;2023-09-12T04:56:23;95768.50;;;12.20;64.14
24160;BME280;62385;41.594;23.808;2023-09-12T04:58:51;95742.34;;;12.00;64.53
24160;BME280;62385;41.594;23.808;2023-09-12T05:01:17;95764.97;;;12.27;63.89
24160;BME280;62385;41.594;23.808;2023-09-12T05:03:43;95762.38;;;12.50;63.54
24160;BME280;62385;41.594;23.808;2023-09-12T05:06:10;95762.75;;;12.39;63.79
24160;BME280;62385;41.594;23.808;2023-09-12T05:08:35;95768.53;;;12.42;64.31
24160;BME280;62385;41.594;23.808;2023-09-12T05:11:01;95771.63;;;12.62;64.37
24160;BME280;62385;41.594;23.808;2023-09-12T05:13:28;95779.66;;;12.77;63.76
24160;BME280;62385;41.594;23.808;2023-09-12T05:15:54;95782.03;;;13.17;62.94
24160;BME280;62385;41.594;23.808;2023-09-12T05:18:21;95774.91;;;13.10;63.89
24160;BME280;62385;41.594;23.808;2023-09-12T05:20:47;95782.78;;;13.11;64.72
24160;BME280;62385;41.594;23.808;2023-09-12T05:23:13;95779.09;;;13.12;64.89
24160;BME280;62385;41.594;23.808;2023-09-12T05:25:38;95778.28;;;13.12;65.61
24160;BME280;62385;41.594;23.808;2023-09-12T05:28:04;95779.06;;;13.35;64.80
24160;BME280;62385;41.594;23.808;2023-09-12T05:30:30;95769.75;;;13.16;65.11
24160;BME280;62385;41.594;23.808;2023-09-12T05:32:56;95761.00;;;13.22;64.69
24160;BME280;62385;41.594;23.808;2023-09-12T05:35:21;95784.53;;;13.19;64.47
24160;BME280;62385;41.594;23.808;2023-09-12T05:37:48;95776.03;;;13.38;64.83
24160;BME280;62385;41.594;23.808;2023-09-12T05:40:14;95777.81;;;13.60;64.01
24160;BME280;62385;41.594;23.808;2023-09-12T05:42:39;95758.78;;;13.63;63.98
24160;BME280;62385;41.594;23.808;2023-09-12T05:45:06;95778.56;;;13.83;64.15
24160;BME280;62385;41.594;23.808;2023-09-12T05:47:32;95761.81;;;13.60;64.46
24160;BME280;62385;41.594;23.808;2023-09-12T05:49:57;95778.56;;;13.83;63.71
24160;BME280;62385;41.594;23.808;2023-09-12T05:52:25;95769.84;;;13.90;64.57
24160;BME280;62385;41.594;23.808;2023-09-12T05:54:51;95759.34;;;14.03;63.50
24160;BME280;62385;41.594;23.808;2023-09-12T05:57:16;95771.72;;;14.25;62.44
24160;BME280;62385;41.594;23.808;2023-09-12T05:59:42;95766.97;;;14.06;62.25
24160;BME280;62385;41.594;23.808;2023-09-12T06:02:07;95773.59;;;14.39;61.84
24160;BME280;62385;41.594;23.808;2023-09-12T06:04:36;95757.31;;;14.19;62.58
24160;BME280;62385;41.594;23.808;2023-09-12T06:07:02;95773.22;;;14.42;62.33
24160;BME280;62385;41.594;23.808;2023-09-12T06:09:28;95770.19;;;14.45;61.05
24160;BME280;62385;41.594;23.808;2023-09-12T06:11:54;95775.03;;;14.56;60.58
24160;BME280;62385;41.594;23.808;2023-09-12T06:14:37;95768.16;;;14.47;60.34
24160;BME280;62385;41.594;23.808;2023-09-12T06:17:03;95774.94;;;14.64;59.58
24160;BME280;62385;41.594;23.808;2023-09-12T06:19:28;95761.06;;;14.75;59.10
24160;BME280;62385;41.594;23.808;2023-09-12T06:21:54;95766.38;;;14.90;59.37
24160;BME280;62385;41.594;23.808;2023-09-12T06:24:21;95769.41;;;15.08;59.62
24160;BME280;62385;41.594;23.808;2023-09-12T06:26:47;95773.88;;;15.22;59.04
24160;BME280;62385;41.594;23.808;2023-09-12T06:29:13;95772.47;;;15.27;59.47
24160;BME280;62385;41.594;23.808;2023-09-12T06:31:40;95778.69;;;15.34;58.73
24160;BME280;62385;41.594;23.808;2023-09-12T06:34:09;95773.19;;;15.42;59.08
24160;BME280;62385;41.594;23.808;2023-09-12T06:36:35;95775.47;;;15.66;57.68
24160;BME280;62385;41.594;23.808;2023-09-12T06:39:01;95768.78;;;15.83;57.65
24160;BME280;62385;41.594;23.808;2023-09-12T06:41:28;95774.69;;;15.72;57.15
24160;BME280;62385;41.594;23.808;2023-09-12T06:43:54;95779.91;;;15.80;57.53
24160;BME280;62385;41.594;23.808;2023-09-12T06:46:22;95772.75;;;15.87;57.08
24160;BME280;62385;41.594;23.808;2023-09-12T06:48:47;95779.78;;;15.95;57.19
24160;BME280;62385;41.594;23.808;2023-09-12T06:51:16;95777.59;;;16.05;57.20
24160;BME280;62385;41.594;23.808;2023-09-12T06:53:41;95761.94;;;16.02;56.90
24160;BME280;62385;41.594;23.808;2023-09-12T06:56:07;95770.28;;;16.27;56.94
24160;BME280;62385;41.594;23.808;2023-09-12T06:58:33;95759.97;;;16.24;56.26
24160;BME280;62385;41.594;23.808;2023-09-12T07:01:03;95775.56;;;16.54;55.99
24160;BME280;62385;41.594;23.808;2023-09-12T07:03:31;95767.16;;;16.57;55.50
24160;BME280;62385;41.594;23.808;2023-09-12T07:05:57;95766.13;;;16.65;55.63
24160;BME280;62385;41.594;23.808;2023-09-12T07:08:22;95764.28;;;16.66;55.14
24160;BME280;62385;41.594;23.808;2023-09-12T07:10:48;95752.34;;;16.68;54.76
24160;BME280;62385;41.594;23.808;2023-09-12T07:13:13;95773.03;;;16.94;53.86
24160;BME280;62385;41.594;23.808;2023-09-12T07:15:39;95757.34;;;16.91;53.38
24160;BME280;62385;41.594;23.808;2023-09-12T07:18:05;95770.81;;;17.37;52.85
24160;BME280;62385;41.594;23.808;2023-09-12T07:20:34;95772.28;;;17.26;51.64
24160;BME280;62385;41.594;23.808;2023-09-12T07:23:00;95768.97;;;17.31;51.65
24160;BME280;62385;41.594;23.808;2023-09-12T07:25:26;95757.41;;;17.17;51.05
24160;BME280;62385;41.594;23.808;2023-09-12T07:27:52;95759.91;;;17.58;51.96
24160;BME280;62385;41.594;23.808;2023-09-12T07:30:19;95763.19;;;17.60;52.29
24160;BME280;62385;41.594;23.808;2023-09-12T07:32:44;95764.66;;;17.43;52.35
24160;BME280;62385;41.594;23.808;2023-09-12T07:35:10;95753.88;;;17.36;51.88
24160;BME280;62385;41.594;23.808;2023-09-12T07:37:36;95756.81;;;17.74;51.47
24160;BME280;62385;41.594;23.808;2023-09-12T07:40:01;95755.31;;;17.98;50.55
24160;BME280;62385;41.594;23.808;2023-09-12T07:42:35;95757.00;;;17.79;52.46
24160;BME280;62385;41.594;23.808;2023-09-12T07:45:05;95750.09;;;18.16;51.80
24160;BME280;62385;41.594;23.808;2023-09-12T07:47:32;95754.03;;;18.20;49.97
24160;BME280;62385;41.594;23.808;2023-09-12T07:49:57;95749.88;;;18.24;51.02
24160;BME280;62385;41.594;23.808;2023-09-12T07:52:26;95736.59;;;18.36;48.66
24160;BME280;62385;41.594;23.808;2023-09-12T07:54:51;95735.41;;;18.25;49.62
24160;BME280;62385;41.594;23.808;2023-09-12T07:57:23;95733.94;;;18.29;49.07
24160;BME280;62385;41.594;23.808;2023-09-12T07:59:49;95740.66;;;18.52;48.90
24160;BME280;62385;41.594;23.808;2023-09-12T08:02:14;95735.00;;;18.79;47.94
24160;BME280;62385;41.594;23.808;2023-09-12T08:04:40;95730.22;;;18.81;47.81
24160;BME280;62385;41.594;23.808;2023-09-12T08:07:06;95720.53;;;18.74;48.96
24160;BME280;62385;41.594;23.808;2023-09-12T08:09:53;95728.56;;;18.80;48.17
24160;BME280;62385;41.594;23.808;2023-09-12T08:12:21;95702.59;;;18.92;47.74
24160;BME280;62385;41.594;23.808;2023-09-12T08:14:47;95725.06;;;19.36;46.93
24160;BME280;62385;41.594;23.808;2023-09-12T08:17:13;95719.97;;;19.28;46.33
24160;BME280;62385;41.594;23.808;2023-09-12T08:19:39;95719.81;;;19.48;46.33
24160;BME280;62385;41.594;23.808;2023-09-12T08:22:06;95717.59;;;19.38;46.22
24160;BME280;62385;41.594;23.808;2023-09-12T08:24:33;95716.47;;;19.52;46.58
24160;BME280;62385;41.594;23.808;2023-09-12T08:26:59;95723.56;;;19.47;45.30
24160;BME280;62385;41.594;23.808;2023-09-12T08:29:25;95695.84;;;19.46;45.75
24160;BME280;62385;41.594;23.808;2023-09-12T08:31:50;95709.88;;;19.73;45.58
24160;BME280;62385;41.594;23.808;2023-09-12T08:34:16;95691.13;;;19.60;46.80
24160;BME280;62385;41.594;23.808;2023-09-12T08:36:42;95706.19;;;19.67;45.24
24160;BME280;62385;41.594;23.808;2023-09-12T08:39:14;95698.00;;;19.56;45.84
24160;BME280;62385;41.594;23.808;2023-09-12T08:41:40;95690.72;;;19.63;47.07
24160;BME280;62385;41.594;23.808;2023-09-12T08:44:06;95704.00;;;20.19;44.49
24160;BME280;62385;41.594;23.808;2023-09-12T08:46:32;95696.16;;;20.36;43.89
24160;BME280;62385;41.594;23.808;2023-09-12T08:48:58;95693.50;;;20.47;44.28
24160;BME280;62385;41.594;23.808;2023-09-12T08:51:24;95693.81;;;20.57;44.47
24160;BME280;62385;41.594;23.808;2023-09-12T08:53:51;95686.28;;;20.59;45.18
24160;BME280;62385;41.594;23.808;2023-09-12T08:56:20;95688.97;;;20.78;44.78
24160;BME280;62385;41.594;23.808;2023-09-12T08:58:46;95670.28;;;20.76;45.07
24160;BME280;62385;41.594;23.808;2023-09-12T09:01:13;95685.78;;;20.81;44.80
24160;BME280;62385;41.594;23.808;2023-09-12T09:03:42;95684.19;;;20.91;43.81
24160;BME280;62385;41.594;23.808;2023-09-12T09:06:10;95681.91;;;21.06;43.15
24160;BME280;62385;41.594;23.808;2023-09-12T09:08:37;95679.84;;;21.20;43.36
24160;BME280;62385;41.594;23.808;2023-09-12T09:11:04;95667.06;;;21.27;42.79
24160;BME280;62385;41.594;23.808;2023-09-12T09:13:32;95661.66;;;21.39;41.93
24160;BME280;62385;41.594;23.808;2023-09-12T09:16:12;95675.78;;;21.41;41.64
24160;BME280;62385;41.594;23.808;2023-09-12T09:21:25;95661.56;;;21.57;41.34
24160;BME280;62385;41.594;23.808;2023-09-12T09:23:52;95665.66;;;21.83;40.59
24160;BME280;62385;41.594;23.808;2023-09-12T09:26:19;95672.38;;;21.80;40.97
24160;BME280;62385;41.594;23.808;2023-09-12T09:28:46;95667.78;;;21.69;39.93
24160;BME280;62385;41.594;23.808;2023-09-12T09:31:26;95669.44;;;22.05;40.43
24160;BME280;62385;41.594;23.808;2023-09-12T09:33:52;95638.44;;;22.24;40.20
24160;BME280;62385;41.594;23.808;2023-09-12T09:36:17;95657.75;;;22.28;40.74
24160;BME280;62385;41.594;23.808;2023-09-12T09:38:43;95664.09;;;22.22;40.05
24160;BME280;62385;41.594;23.808;2023-09-12T09:41:09;95657.13;;;22.37;39.59
24160;BME280;62385;41.594;23.808;2023-09-12T09:43:35;95646.63;;;22.41;40.41
24160;BME280;62385;41.594;23.808;2023-09-12T09:46:02;95643.50;;;22.72;38.93
24160;BME280;62385;41.594;23.808;2023-09-12T09:48:28;95635.31;;;22.84;38.30
24160;BME280;62385;41.594;23.808;2023-09-12T09:51:02;95634.25;;;22.85;39.13
24160;BME280;62385;41.594;23.808;2023-09-12T09:53:29;95633.56;;;22.78;39.29
24160;BME280;62385;41.594;23.808;2023-09-12T09:56:14;95631.59;;;23.02;38.14
24160;BME280;62385;41.594;23.808;2023-09-12T09:58:56;95636.09;;;23.13;37.04
24160;BME280;62385;41.594;23.808;2023-09-12T10:01:23;95623.47;;;23.02;37.43
24160;BME280;62385;41.594;23.808;2023-09-12T10:03:52;95622.38;;;23.02;35.33
24160;BME280;62385;41.594;23.808;2023-09-12T10:06:21;95626.91;;;22.97;35.43
24160;BME280;62385;41.594;23.808;2023-09-12T10:08:51;95622.66;;;23.18;37.16
24160;BME280;62385;41.594;23.808;2023-09-12T10:11:22;95604.31;;;23.25;36.18
24160;BME280;62385;41.594;23.808;2023-09-12T10:13:55;95611.31;;;23.54;35.83
24160;BME280;62385;41.594;23.808;2023-09-12T10:16:31;95610.13;;;23.83;35.25
24160;BME280;62385;41.594;23.808;2023-09-12T10:19:15;95590.50;;;23.76;35.22
24160;BME280;62385;41.594;23.808;2023-09-12T10:22:21;95606.47;;;23.95;34.12
24160;BME280;62385;41.594;23.808;2023-09-12T10:24:50;95601.75;;;23.85;34.56
24160;BME280;62385;41.594;23.808;2023-09-12T10:27:18;95606.38;;;23.68;32.12
24160;BME280;62385;41.594;23.808;2023-09-12T10:29:45;95603.88;;;23.83;33.83
24160;BME280;62385;41.594;23.808;2023-09-12T10:32:14;95587.63;;;24.05;34.43
24160;BME280;62385;41.594;23.808;2023-09-12T10:34:41;95580.81;;;23.80;34.94
24160;BME280;62385;41.594;23.808;2023-09-12T10:37:12;95586.03;;;24.09;32.50
24160;BME280;62385;41.594;23.808;2023-09-12T10:39:40;95586.81;;;24.04;32.94
24160;BME280;62385;41.594;23.808;2023-09-12T10:42:08;95583.47;;;24.19;33.65
24160;BME280;62385;41.594;23.808;2023-09-12T10:44:34;95577.34;;;23.85;32.73
24160;BME280;62385;41.594;23.808;2023-09-12T10:47:19;95572.84;;;23.74;31.53
24160;BME280;62385;41.594;23.808;2023-09-12T10:49:45;95576.31;;;24.13;29.39
24160;BME280;62385;41.594;23.808;2023-09-12T10:52:21;95558.63;;;24.05;29.81
24160;BME280;62385;41.594;23.808;2023-09-12T10:54:51;95576.56;;;24.11;32.83
24160;BME280;62385;41.594;23.808;2023-09-12T10:57:17;95569.66;;;24.42;30.26
24160;BME280;62385;41.594;23.808;2023-09-12T11:02:31;95565.59;;;24.71;30.08
24160;BME280;62385;41.594;23.808;2023-09-12T11:04:58;95559.41;;;24.49;31.06
24160;BME280;62385;41.594;23.808;2023-09-12T11:10:22;95542.88;;;24.82;30.87
24160;BME280;62385;41.594;23.808;2023-09-12T11:12:53;95552.03;;;24.71;28.88
24160;BME280;62385;41.594;23.808;2023-09-12T11:15:21;95548.28;;;25.04;30.40
24160;BME280;62385;41.594;23.808;2023-09-12T11:17:48;95550.81;;;25.16;31.61
24160;BME280;62385;41.594;23.808;2023-09-12T11:20:16;95529.72;;;25.70;30.05
24160;BME280;62385;41.594;23.808;2023-09-12T11:22:43;95536.28;;;25.37;28.08
24160;BME280;62385;41.594;23.808;2023-09-12T11:25:27;95545.41;;;25.21;28.51
24160;BME280;62385;41.594;23.808;2023-09-12T11:30:21;95518.63;;;25.40;30.50
24160;BME280;62385;41.594;23.808;2023-09-12T11:33:10;95527.06;;;25.85;29.17
24160;BME280;62385;41.594;23.808;2023-09-12T11:35:37;95505.28;;;25.85;28.56
24160;BME280;62385;41.594;23.808;2023-09-12T11:38:03;95503.03;;;26.29;28.36
24160;BME280;62385;41.594;23.808;2023-09-12T11:42:57;95506.28;;;26.26;28.29
24160;BME280;62385;41.594;23.808;2023-09-12T11:45:24;95496.25;;;26.52;27.13
24160;BME280;62385;41.594;23.808;2023-09-12T11:47:50;95508.78;;;26.38;27.75
24160;BME280;62385;41.594;23.808;2023-09-12T11:50:52;95500.34;;;25.72;29.65
24160;BME280;62385;41.594;23.808;2023-09-12T11:53:20;95501.81;;;26.05;26.38
24160;BME280;62385;41.594;23.808;2023-09-12T11:55:51;95477.19;;;26.32;27.80
24160;BME280;62385;41.594;23.808;2023-09-12T11:58:18;95488.66;;;26.49;26.88
24160;BME280;62385;41.594;23.808;2023-09-12T12:00:55;95468.06;;;26.01;28.55
24160;BME280;62385;41.594;23.808;2023-09-12T12:03:22;95480.72;;;26.32;27.72
24160;BME280;62385;41.594;23.808;2023-09-12T12:05:49;95473.31;;;26.12;28.35
24160;BME280;62385;41.594;23.808;2023-09-12T12:08:16;95474.22;;;26.48;28.17
24160;BME280;62385;41.594;23.808;2023-09-12T12:10:42;95476.38;;;26.36;28.19
24160;BME280;62385;41.594;23.808;2023-09-12T12:13:11;95477.78;;;26.84;27.54
24160;BME280;62385;41.594;23.808;2023-09-12T12:15:37;95467.69;;;26.80;26.43
24160;BME280;62385;41.594;23.808;2023-09-12T12:18:03;95469.84;;;26.68;27.68
24160;BME280;62385;41.594;23.808;2023-09-12T12:20:29;95459.78;;;27.29;26.72
24160;BME280;62385;41.594;23.808;2023-09-12T12:22:56;95465.78;;;26.65;27.85
24160;BME280;62385;41.594;23.808;2023-09-12T12:25:21;95460.88;;;26.67;27.91
24160;BME280;62385;41.594;23.808;2023-09-12T12:27:47;95456.28;;;26.98;27.44
24160;BME280;62385;41.594;23.808;2023-09-12T12:30:14;95445.91;;;26.64;27.29
24160;BME280;62385;41.594;23.808;2023-09-12T12:32:41;95446.41;;;27.22;28.18
24160;BME280;62385;41.594;23.808;2023-09-12T12:35:07;95456.81;;;27.05;27.00
24160;BME280;62385;41.594;23.808;2023-09-12T12:37:33;95445.66;;;26.86;27.29
24160;BME280;62385;41.594;23.808;2023-09-12T12:40:00;95441.78;;;27.13;27.15
24160;BME280;62385;41.594;23.808;2023-09-12T12:42:33;95435.47;;;27.52;25.72
24160;BME280;62385;41.594;23.808;2023-09-12T12:44:59;95448.06;;;27.28;26.89
24160;BME280;62385;41.594;23.808;2023-09-12T12:47:24;95438.19;;;27.37;27.53
24160;BME280;62385;41.594;23.808;2023-09-12T12:49:51;95442.25;;;27.55;25.25
24160;BME280;62385;41.594;23.808;2023-09-12T12:52:23;95436.34;;;27.28;26.59
24160;BME280;62385;41.594;23.808;2023-09-12T12:54:49;95448.53;;;27.61;26.83
24160;BME280;62385;41.594;23.808;2023-09-12T12:57:20;95426.78;;;28.10;25.94
24160;BME280;62385;41.594;23.808;2023-09-12T12:59:49;95425.31;;;27.63;25.89
24160;BME280;62385;41.594;23.808;2023-09-12T13:02:16;95431.81;;;27.77;25.92
24160;BME280;62385;41.594;23.808;2023-09-12T13:04:42;95438.91;;;27.78;26.43
24160;BME280;62385;41.594;23.808;2023-09-12T13:07:08;95436.84;;;27.45;27.01
24160;BME280;62385;41.594;23.808;2023-09-12T13:09:52;95416.81;;;28.29;25.31